METAR Data
IDs: Format: Raw Decoded Include TAF

Data at: 1325 UTC 11 Dec 2018

KSGR 111253Z 00000KT 7SM CLR 02/01 A3042 RMK AO2 SLP302 T00170006
KSGR 111153Z 00000KT 9SM CLR 02/01 A3042 RMK AO2 SLP302 T00220011 10039 20017 53004
KSGR 111053Z AUTO 00000KT 7SM CLR 02/01 A3040 RMK AO2 SLP297 T00170006
KSGR 110953Z AUTO 00000KT 10SM CLR 03/02 A3040 RMK AO2 SLP295 T00330017
KSGR 110853Z AUTO 00000KT 9SM CLR 03/01 A3041 RMK AO2 SLP298 T00280011 55000
KSGR 110753Z AUTO 00000KT 10SM CLR 03/02 A3041 RMK AO2 SLP298 T00330017
KSGR 110653Z AUTO 24003KT 10SM CLR 03/02 A3040 RMK AO2 SLP298 T00330017
KSGR 110553Z AUTO 00000KT 10SM CLR 04/02 A3041 RMK AO2 SLP298 T00390022 10122 20039 401560033 50003
KSGR 110453Z AUTO 00000KT 10SM CLR 04/02 A3041 RMK AO2 SLP298 T00440022
KSGR 110353Z AUTO 00000KT 10SM CLR 05/02 A3040 RMK AO2 SLP296 T00500022
KSGR 110253Z 00000KT 10SM CLR 06/02 A3040 RMK AO2 SLP296 T00610022 51009
KSGR 110153Z 00000KT 10SM CLR 07/02 A3040 RMK AO2 SLP295 T00670017
KSGR 110053Z 33003KT 10SM CLR 07/02 A3038 RMK AO2 SLP291 T00670022
KSGR 102353Z 33005KT 10SM CLR 12/01 A3037 RMK AO2 SLP287 T01220011 10156 20122 51009
KSGR 102253Z 33005KT 10SM CLR 13/02 A3036 RMK AO2 SLP283 T01330017
KSGR 102153Z 33005KT 10SM CLR 15/01 A3036 RMK AO2 SLP282 T01500011
KSGR 102053Z 32007KT 10SM CLR 15/02 A3034 RMK AO2 SLP278 T01500017 56017
KSGR 101953Z 31008KT 10SM CLR 14/01 A3035 RMK AO2 SLP279 T01440011
KSGR 101853Z VRB04KT 10SM CLR 14/01 A3037 RMK AO2 SLP286 T01390006
KSGR 101753Z 29005KT 10SM CLR 13/01 A3040 RMK AO2 SLP295 T01280011 10133 20033 58006
KSGR 101653Z 01006KT 10SM CLR 12/02 A3041 RMK AO2 SLP300 T01170017
KSGR 101553Z 36004KT 10SM CLR 09/02 A3042 RMK AO2 SLP304 T00940022
KSGR 101453Z 36005KT 10SM CLR 08/03 A3041 RMK AO2 SLP301 T00780033 51021
KSGR 101353Z 33004KT 9SM CLR 04/02 A3040 RMK AO2 SLP295 T00440022
KSGR 101253Z 00000KT 9SM CLR 04/02 A3037 RMK AO2 SLP287 T00390022
KSGR 101153Z 35003KT 9SM CLR 04/02 A3035 RMK AO2 SLP280 T00390022 10067 20039 53002
KSGR 101053Z AUTO 33004KT 8SM CLR 04/03 A3034 RMK AO2 SLP275 T00440028
KSGR 100953Z AUTO 32004KT 8SM CLR 04/03 A3034 RMK AO2 SLP277 T00440028
KSGR 100853Z AUTO 32004KT 9SM CLR 05/03 A3035 RMK AO2 SLP277 T00500033 56006
KSGR 100753Z AUTO 30007KT 8SM CLR 06/03 A3035 RMK AO2 SLP280 T00560033
KSGR 100653Z AUTO 26004KT 9SM CLR 06/04 A3035 RMK AO2 SLP281 T00610039
KSGR 100553Z AUTO 31004KT 10SM CLR 07/04 A3036 RMK AO2 SLP283 T00670039 10094 20067 400940067 50005
KSGR 100453Z AUTO 33006KT 10SM FEW030 08/04 A3036 RMK AO2 SLP284 T00780039
KSGR 100433Z AUTO 33005KT 10SM OVC030 08/04 A3036 RMK AO2 T00830044
KSGR 100353Z AUTO 36007KT 10SM OVC026 09/04 A3036 RMK AO2 SLP281 T00940044
KSGR 100253Z 36010KT 10SM OVC022 09/04 A3035 RMK AO2 SLP278 T00890044 53016
KSGR 100153Z 36008KT 10SM OVC020 09/04 A3033 RMK AO2 SLP273 T00890044